Time;durP1;ratioP1;P1;durP2;ratioP2;P2;SDS_P1;SDS_P2;PMS_P1;PMS_P2;Temp;Humidity;BMP_temperature;BMP_pressure;BME280_temperature;BME280_humidity;BME280_pressure;Samples;Min_cycle;Max_cycle;Signal;HPM_P1;HPM_P2
2024/03/05 00:00:13;;;;;;;;;;;;;;;;;;5049561;28;20401;-81
2024/03/05 00:02:39;;;;;;;;;;;;;;;;;;5041186;28;20152;-79
2024/03/05 00:05:06;;;;;;;;;;;;;;;;;;5039536;28;19971;-79
2024/03/05 00:07:32;;;;;;;;;;;;;;;;;;5046871;28;19917;-79
2024/03/05 00:09:58;;;;;;;;;;;;;;;;;;5041066;28;19913;-79
2024/03/05 00:12:24;;;;;;;;;;;;;;;;;;5044079;28;19917;-78
2024/03/05 00:14:49;;;;;;;;;;;;;;;;;;5038075;28;19967;-80
2024/03/05 00:17:15;;;;;;;;;;;;;;;;;;5045014;28;19913;-80
2024/03/05 00:19:41;;;;;;;;;;;;;;;;;;5032755;28;19928;-80
2024/03/05 00:22:08;;;;;;;;;;;;;;;;;;5032115;28;19923;-80
2024/03/05 00:24:33;;;;;;;;;;;;;;;;;;5044160;28;20169;-80
2024/03/05 00:26:59;;;;;;;;;;;;;;;;;;5045150;28;19964;-80
2024/03/05 00:29:25;;;;;;;;;;;;;;;;;;5033334;28;19917;-80
2024/03/05 00:31:51;;;;;;;;;;;;;;;;;;5056533;28;19957;-81
2024/03/05 00:34:17;;;;;;;;;;;;;;;;;;5042450;28;19913;-81
2024/03/05 00:36:43;;;;;;;;;;;;;;;;;;5050206;28;20291;-81
2024/03/05 00:39:09;;;;;;;;;;;;;;;;;;5050482;28;19979;-81
2024/03/05 00:41:35;;;;;;;;;;;;;;;;;;5047110;28;20550;-80
2024/03/05 00:44:01;;;;;;;;;;;;;;;;;;5061399;28;19909;-80
2024/03/05 00:46:27;;;;;;;;;;;;;;;;;;5043403;28;19936;-80
2024/03/05 00:48:53;;;;;;;;;;;;;;;;;;5044329;28;20268;-81
2024/03/05 00:51:19;;;;;;;;;;;;;;;;;;5043384;28;19990;-80
2024/03/05 00:53:44;;;;;;;;;;;;;;;;;;5051968;28;20005;-80
2024/03/05 00:56:10;;;;;;;;;;;;;;;;;;5056167;28;19920;-80
2024/03/05 00:58:36;;;;;;;;;;;;;;;;;;5045161;28;20008;-81
2024/03/05 01:01:03;;;;;;;;;;;;;;;;;;5048413;28;19932;-79
2024/03/05 01:03:29;;;;;;;;;;;;;;;;;;5036998;28;19917;-80
2024/03/05 01:05:55;;;;;;;;;;;;;;;;;;5046647;28;19963;-80
2024/03/05 01:08:21;;;;;;;;;;;;;;;;;;5052445;28;19909;-80
2024/03/05 01:10:47;;;;;;;;;;;;;;;;;;5050915;28;19913;-80
2024/03/05 01:13:12;;;;;;;;;;;;;;;;;;5046188;28;19921;-80
2024/03/05 01:15:38;;;;;;;;;;;;;;;;;;5047532;28;20360;-80
2024/03/05 01:18:04;;;;;;;;;;;;;;;;;;5046320;28;19978;-80
2024/03/05 01:20:30;;;;;;;;;;;;;;;;;;5042173;28;19924;-80
2024/03/05 01:22:56;;;;;;;;;;;;;;;;;;5047872;28;19951;-80
2024/03/05 01:25:22;;;;;;;;;;;;;;;;;;5052752;28;19913;-79
2024/03/05 01:27:48;;;;;;;;;;;;;;;;;;5037533;28;19967;-80
2024/03/05 01:30:14;;;;;;;;;;;;;;;;;;5043123;28;19958;-80
2024/03/05 01:32:40;;;;;;;;;;;;;;;;;;5047500;28;19966;-80
2024/03/05 01:35:09;;;;;;;;;;;;;;;;;;5047694;28;19967;-80
2024/03/05 01:37:35;;;;;;;;;;;;;;;;;;5036429;28;19921;-80
2024/03/05 01:40:01;;;;;;;;;;;;;;;;;;5034900;28;20013;-80
2024/03/05 01:42:26;;;;;;;;;;;;;;;;;;5040938;28;20454;-80
2024/03/05 01:44:52;;;;;;;;;;;;;;;;;;5044395;28;20366;-80
2024/03/05 01:47:18;;;;;;;;;;;;;;;;;;5039634;28;20004;-79
2024/03/05 01:49:44;;;;;;;;;;;;;;;;;;5047338;28;20063;-78
2024/03/05 01:52:10;;;;;;;;;;;;;;;;;;5050745;28;19912;-79
2024/03/05 01:54:36;;;;;;;;;;;;;;;;;;5046327;28;19917;-79
2024/03/05 01:57:02;;;;;;;;;;;;;;;;;;5045005;28;19991;-79
2024/03/05 01:59:28;;;;;;;;;;;;;;;;;;5040727;28;20058;-78
2024/03/05 02:01:54;;;;;;;;;;;;;;;;;;5039687;28;20440;-78
2024/03/05 02:04:21;;;;;;;;;;;;;;;;;;5046270;28;19917;-80
2024/03/05 02:06:46;;;;;;;;;;;;;;;;;;5046112;28;19921;-80
2024/03/05 02:09:12;;;;;;;;;;;;;;;;;;5049100;28;19924;-79
2024/03/05 02:11:39;;;;;;;;;;;;;;;;;;5039597;28;19913;-79
2024/03/05 02:14:06;;;;;;;;;;;;;;;;;;5049922;28;20402;-79
2024/03/05 02:16:31;;;;;;;;;;;;;;;;;;5041788;28;20351;-79
2024/03/05 02:18:57;;;;;;;;;;;;;;;;;;5045838;28;20003;-79
2024/03/05 02:21:23;;;;;;;;;;;;;;;;;;5037767;28;20425;-79
2024/03/05 02:23:49;;;;;;;;;;;;;;;;;;5047974;28;20295;-79
2024/03/05 02:26:16;;;;;;;;;;;;;;;;;;5046857;28;19923;-79
2024/03/05 02:28:42;;;;;;;;;;;;;;;;;;5048151;28;19912;-79
2024/03/05 02:31:08;;;;;;;;;;;;;;;;;;5039885;28;19958;-79
2024/03/05 02:33:34;;;;;;;;;;;;;;;;;;5032280;28;20356;-79
2024/03/05 02:36:00;;;;;;;;;;;;;;;;;;5044316;28;20280;-79
2024/03/05 02:38:26;;;;;;;;;;;;;;;;;;5043403;28;20341;-79
2024/03/05 02:40:51;;;;;;;;;;;;;;;;;;5040432;28;19917;-79
2024/03/05 02:43:17;;;;;;;;;;;;;;;;;;5045165;28;20540;-79
2024/03/05 02:45:43;;;;;;;;;;;;;;;;;;5046438;28;20298;-80
2024/03/05 02:48:09;;;;;;;;;;;;;;;;;;5035467;28;19921;-79
2024/03/05 02:50:35;;;;;;;;;;;;;;;;;;5040620;28;20626;-79
2024/03/05 02:53:03;;;;;;;;;;;;;;;;;;5049228;28;19919;-79
2024/03/05 02:55:28;;;;;;;;;;;;;;;;;;5046823;28;19952;-79
2024/03/05 02:57:54;;;;;;;;;;;;;;;;;;5040803;28;19949;-79
2024/03/05 03:00:20;;;;;;;;;;;;;;;;;;5037365;28;19916;-79
2024/03/05 03:02:47;;;;;;;;;;;;;;;;;;5043303;28;19912;-79
2024/03/05 03:05:13;;;;;;;;;;;;;;;;;;5043130;28;19963;-79
2024/03/05 03:07:38;;;;;;;;;;;;;;;;;;5047406;28;20283;-79
2024/03/05 03:10:05;;;;;;;;;;;;;;;;;;5046758;28;19913;-79
2024/03/05 03:12:31;;;;;;;;;;;;;;;;;;5041866;28;19913;-78
2024/03/05 03:14:57;;;;;;;;;;;;;;;;;;5050186;28;19920;-79
2024/03/05 03:17:23;;;;;;;;;;;;;;;;;;5043662;28;19917;-79
2024/03/05 03:19:49;;;;;;;;;;;;;;;;;;5042391;28;20612;-79
2024/03/05 03:22:15;;;;;;;;;;;;;;;;;;5043824;28;19919;-78
2024/03/05 03:24:42;;;;;;;;;;;;;;;;;;5043947;28;19921;-80
2024/03/05 03:27:11;;;;;;;;;;;;;;;;;;5056645;28;19912;-79
2024/03/05 03:29:40;;;;;;;;;;;;;;;;;;5065689;28;19923;-79
2024/03/05 03:32:08;;;;;;;;;;;;;;;;;;5045435;28;19923;-79
2024/03/05 03:34:34;;;;;;;;;;;;;;;;;;5047536;28;19913;-79
2024/03/05 03:37:00;;;;;;;;;;;;;;;;;;5038716;28;19924;-79
2024/03/05 03:39:26;;;;;;;;;;;;;;;;;;5048549;28;19916;-79
2024/03/05 03:41:52;;;;;;;;;;;;;;;;;;5044303;28;20375;-79
2024/03/05 03:44:18;;;;;;;;;;;;;;;;;;5043673;28;19931;-79
2024/03/05 03:46:44;;;;;;;;;;;;;;;;;;5042908;28;19921;-79
2024/03/05 03:49:10;;;;;;;;;;;;;;;;;;5039412;28;19916;-79
2024/03/05 03:51:36;;;;;;;;;;;;;;;;;;5044459;28;19917;-79
2024/03/05 03:54:04;;;;;;;;;;;;;;;;;;5047125;28;20336;-79
2024/03/05 03:56:30;;;;;;;;;;;;;;;;;;5049056;28;20003;-79
2024/03/05 03:58:56;;;;;;;;;;;;;;;;;;5041557;28;20004;-79
2024/03/05 04:01:22;;;;;;;;;;;;;;;;;;5043240;28;19919;-79
2024/03/05 04:03:48;;;;;;;;;;;;;;;;;;5037136;28;19960;-79
2024/03/05 04:06:14;;;;;;;;;;;;;;;;;;5043592;28;19971;-79
2024/03/05 04:08:40;;;;;;;;;;;;;;;;;;5044752;28;19944;-79
2024/03/05 04:11:06;;;;;;;;;;;;;;;;;;5035948;28;20394;-79
2024/03/05 04:13:33;;;;;;;;;;;;;;;;;;5048821;28;20001;-79
2024/03/05 04:15:59;;;;;;;;;;;;;;;;;;5045830;28;20410;-79
2024/03/05 04:18:25;;;;;;;;;;;;;;;;;;5042060;28;19928;-79
2024/03/05 04:20:51;;;;;;;;;;;;;;;;;;5035441;28;19917;-79
2024/03/05 04:23:17;;;;;;;;;;;;;;;;;;5042731;28;19991;-79
2024/03/05 04:25:43;;;;;;;;;;;;;;;;;;5050930;28;20530;-80
2024/03/05 04:28:10;;;;;;;;;;;;;;;;;;5047237;28;20004;-79
2024/03/05 04:30:37;;;;;;;;;;;;;;;;;;5050927;28;19962;-79
2024/03/05 04:33:05;;;;;;;;;;;;;;;;;;5043088;28;20295;-79
2024/03/05 04:35:31;;;;;;;;;;;;;;;;;;5058653;28;19952;-79
2024/03/05 04:37:57;;;;;;;;;;;;;;;;;;5046038;28;19920;-79
2024/03/05 04:40:23;;;;;;;;;;;;;;;;;;5046125;28;20364;-79
2024/03/05 04:42:49;;;;;;;;;;;;;;;;;;5048116;28;20012;-79
2024/03/05 04:45:15;;;;;;;;;;;;;;;;;;5040646;28;19920;-79
2024/03/05 04:47:41;;;;;;;;;;;;;;;;;;5048338;28;19917;-79
2024/03/05 04:50:09;;;;;;;;;;;;;;;;;;5041557;28;19962;-80
2024/03/05 04:52:35;;;;;;;;;;;;;;;;;;5049454;28;19958;-79
2024/03/05 04:55:01;;;;;;;;;;;;;;;;;;5044980;28;19912;-80
2024/03/05 04:57:27;;;;;;;;;;;;;;;;;;5048938;28;20021;-79
2024/03/05 04:59:53;;;;;;;;;;;;;;;;;;5039190;28;19917;-79
2024/03/05 05:02:19;;;;;;;;;;;;;;;;;;5044721;28;20386;-80
2024/03/05 05:04:45;;;;;;;;;;;;;;;;;;5052450;28;20010;-80
2024/03/05 05:07:11;;;;;;;;;;;;;;;;;;5037743;28;19920;-79
2024/03/05 05:09:38;;;;;;;;;;;;;;;;;;5061766;28;19954;-79
2024/03/05 05:12:04;;;;;;;;;;;;;;;;;;5042629;28;20019;-79
2024/03/05 05:14:30;;;;;;;;;;;;;;;;;;5044259;28;20062;-79
2024/03/05 05:16:55;;;;;;;;;;;;;;;;;;5044527;28;20053;-79
2024/03/05 05:19:21;;;;;;;;;;;;;;;;;;5039074;28;20476;-79
2024/03/05 05:21:47;;;;;;;;;;;;;;;;;;5041592;28;19975;-79
2024/03/05 05:24:13;;;;;;;;;;;;;;;;;;5035688;28;19913;-79
2024/03/05 05:26:39;;;;;;;;;;;;;;;;;;5044241;28;19921;-78
2024/03/05 05:29:05;;;;;;;;;;;;;;;;;;5045012;28;19920;-79
2024/03/05 05:31:31;;;;;;;;;;;;;;;;;;5041683;28;19920;-80
2024/03/05 05:33:57;;;;;;;;;;;;;;;;;;5047567;28;19921;-79
2024/03/05 05:36:23;;;;;;;;;;;;;;;;;;5046808;28;19971;-81
2024/03/05 05:38:49;;;;;;;;;;;;;;;;;;5048610;28;19928;-81
2024/03/05 05:41:15;;;;;;;;;;;;;;;;;;5044552;28;20375;-80
2024/03/05 05:43:41;;;;;;;;;;;;;;;;;;5039105;28;20003;-80
2024/03/05 05:46:14;;;;;;;;;;;;;;;;;;5048420;28;20004;-79
2024/03/05 05:48:42;;;;;;;;;;;;;;;;;;5044192;28;19944;-79
2024/03/05 05:51:10;;;;;;;;;;;;;;;;;;5050649;28;19927;-79
2024/03/05 05:53:35;;;;;;;;;;;;;;;;;;5050618;28;19908;-79
2024/03/05 05:56:01;;;;;;;;;;;;;;;;;;5050525;28;19955;-78
2024/03/05 05:58:27;;;;;;;;;;;;;;;;;;5063357;28;19919;-80
2024/03/05 06:00:53;;;;;;;;;;;;;;;;;;5058306;28;20287;-79
2024/03/05 06:03:19;;;;;;;;;;;;;;;;;;5049549;28;19995;-79
2024/03/05 06:05:46;;;;;;;;;;;;;;;;;;5040030;28;19974;-79
2024/03/05 06:08:14;;;;;;;;;;;;;;;;;;5042860;28;20326;-79
2024/03/05 06:10:43;;;;;;;;;;;;;;;;;;5047944;28;19966;-79
2024/03/05 06:13:09;;;;;;;;;;;;;;;;;;5045643;28;19917;-79
2024/03/05 06:15:37;;;;;;;;;;;;;;;;;;5050347;28;19928;-81
2024/03/05 06:18:02;;;;;;;;;;;;;;;;;;5050950;28;20376;-80
2024/03/05 06:20:28;;;;;;;;;;;;;;;;;;5037029;28;19931;-80
2024/03/05 06:22:55;;;;;;;;;;;;;;;;;;5048459;28;19916;-79
2024/03/05 06:25:21;;;;;;;;;;;;;;;;;;5041025;28;19917;-79
2024/03/05 06:27:48;;;;;;;;;;;;;;;;;;5043970;28;19913;-80
2024/03/05 06:30:17;;;;;;;;;;;;;;;;;;5048309;28;21389;-80
2024/03/05 06:32:43;;;;;;;;;;;;;;;;;;5048081;28;19963;-80
2024/03/05 06:35:12;;;;;;;;;;;;;;;;;;5046579;28;20291;-80
2024/03/05 06:37:38;;;;;;;;;;;;;;;;;;5044314;28;19917;-79
2024/03/05 06:40:09;;;;;;;;;;;;;;;;;;5059477;28;19908;-79
2024/03/05 06:42:35;;;;;;;;;;;;;;;;;;5033448;28;19913;-79
2024/03/05 06:45:06;;;;;;;;;;;;;;;;;;5039438;28;20415;-79
2024/03/05 06:47:38;;;;;;;;;;;;;;;;;;5048971;28;19915;-80
2024/03/05 06:50:07;;;;;;;;;;;;;;;;;;5048878;28;19919;-80
2024/03/05 06:58:04;;;;;;;;;;;;;;;;;;5032425;28;19923;-80
2024/03/05 07:00:30;;;;;;;;;;;;;;;;;;5036049;28;19913;-80
2024/03/05 07:02:55;;;;;;;;;;;;;;;;;;5049061;28;20298;-80
2024/03/05 07:05:22;;;;;;;;;;;;;;;;;;5044951;28;19917;-80
2024/03/05 07:07:48;;;;;;;;;;;;;;;;;;5045274;28;19909;-80
2024/03/05 07:10:14;;;;;;;;;;;;;;;;;;5048724;28;19920;-80
2024/03/05 07:12:40;;;;;;;;;;;;;;;;;;5047260;28;19920;-80
2024/03/05 07:15:09;;;;;;;;;;;;;;;;;;5045875;28;19952;-81
2024/03/05 07:17:35;;;;;;;;;;;;;;;;;;5042346;28;19909;-79
2024/03/05 07:20:03;;;;;;;;;;;;;;;;;;5062162;28;20379;-79
2024/03/05 07:22:29;;;;;;;;;;;;;;;;;;5068649;28;19908;-78
2024/03/05 07:24:55;;;;;;;;;;;;;;;;;;5060275;28;19920;-78
2024/03/05 07:27:21;;;;;;;;;;;;;;;;;;5029497;28;19940;-78
2024/03/05 07:29:46;;;;;;;;;;;;;;;;;;5044936;28;19916;-79
2024/03/05 07:32:15;;;;;;;;;;;;;;;;;;5044991;28;20007;-78
2024/03/05 07:34:41;;;;;;;;;;;;;;;;;;5048408;28;19916;-78
2024/03/05 07:37:07;;;;;;;;;;;;;;;;;;5044305;28;19917;-78
2024/03/05 07:39:33;;;;;;;;;;;;;;;;;;5039555;28;20007;-78
2024/03/05 07:41:59;;;;;;;;;;;;;;;;;;5048487;28;19931;-78
2024/03/05 07:44:24;;;;;;;;;;;;;;;;;;5048739;28;19939;-78
2024/03/05 07:46:50;;;;;;;;;;;;;;;;;;5048300;28;19920;-78
2024/03/05 07:49:16;;;;;;;;;;;;;;;;;;5047023;28;20009;-78
2024/03/05 07:51:42;;;;;;;;;;;;;;;;;;5043559;28;20367;-78
2024/03/05 07:54:08;;;;;;;;;;;;;;;;;;5045422;28;20449;-78
2024/03/05 07:56:34;;;;;;;;;;;;;;;;;;5047118;28;19991;-78
2024/03/05 07:59:00;;;;;;;;;;;;;;;;;;5049912;28;19913;-79
2024/03/05 08:01:26;;;;;;;;;;;;;;;;;;5047337;28;19979;-80
2024/03/05 08:03:51;;;;;;;;;;;;;;;;;;5051176;28;19948;-77
2024/03/05 08:06:17;;;;;;;;;;;;;;;;;;5042190;28;19936;-77
2024/03/05 08:08:43;;;;;;;;;;;;;;;;;;5048974;28;19913;-77
2024/03/05 08:11:11;;;;;;;;;;;;;;;;;;5042735;28;20394;-77
2024/03/05 08:13:37;;;;;;;;;;;;;;;;;;5042108;28;19917;-77
2024/03/05 08:16:04;;;;;;;;;;;;;;;;;;5047147;28;19917;-77
2024/03/05 08:18:30;;;;;;;;;;;;;;;;;;5042088;28;19925;-77
2024/03/05 08:20:56;;;;;;;;;;;;;;;;;;5043410;28;20493;-77
2024/03/05 08:23:22;;;;;;;;;;;;;;;;;;5049298;28;20298;-77
2024/03/05 08:25:48;;;;;;;;;;;;;;;;;;5047895;28;19944;-77
2024/03/05 08:28:14;;;;;;;;;;;;;;;;;;5044416;28;20345;-76
2024/03/05 08:30:42;;;;;;;;;;;;;;;;;;5051442;28;19913;-76
2024/03/05 08:33:08;;;;;;;;;;;;;;;;;;5050361;28;19962;-76
2024/03/05 08:35:34;;;;;;;;;;;;;;;;;;5050904;28;19917;-73
2024/03/05 08:37:59;;;;;;;;;;;;;;;;;;5051270;28;19913;-76
2024/03/05 08:40:26;;;;;;;;;;;;;;;;;;5050993;28;19917;-76
2024/03/05 08:42:54;;;;;;;;;;;;;;;;;;5047964;28;19925;-76
2024/03/05 08:45:20;;;;;;;;;;;;;;;;;;5035940;28;19916;-76
2024/03/05 08:47:45;;;;;;;;;;;;;;;;;;5049578;28;20447;-76
2024/03/05 08:50:11;;;;;;;;;;;;;;;;;;5051258;28;19909;-75
2024/03/05 08:52:37;;;;;;;;;;;;;;;;;;5051131;28;19929;-76
2024/03/05 08:55:05;;;;;;;;;;;;;;;;;;5050155;28;19916;-76
2024/03/05 08:57:30;;;;;;;;;;;;;;;;;;5051051;28;19912;-75
2024/03/05 08:59:56;;;;;;;;;;;;;;;;;;5051026;28;19918;-75
2024/03/05 09:02:24;;;;;;;;;;;;;;;;;;5041639;28;19920;-76
2024/03/05 09:04:51;;;;;;;;;;;;;;;;;;5042458;28;19928;-75
2024/03/05 09:07:17;;;;;;;;;;;;;;;;;;5050832;28;19909;-75
2024/03/05 09:09:44;;;;;;;;;;;;;;;;;;5050949;28;20044;-75
2024/03/05 09:12:12;;;;;;;;;;;;;;;;;;5050381;28;20386;-76
2024/03/05 09:14:38;;;;;;;;;;;;;;;;;;5049902;28;19909;-76
2024/03/05 09:17:05;;;;;;;;;;;;;;;;;;5050732;28;20550;-76
2024/03/05 09:19:31;;;;;;;;;;;;;;;;;;5043249;28;19960;-75
2024/03/05 09:21:57;;;;;;;;;;;;;;;;;;5043484;28;19917;-76
2024/03/05 09:24:23;;;;;;;;;;;;;;;;;;5050716;28;19916;-76
2024/03/05 09:26:50;;;;;;;;;;;;;;;;;;5044750;28;20000;-76
2024/03/05 09:29:16;;;;;;;;;;;;;;;;;;5034265;28;19909;-75
2024/03/05 09:31:42;;;;;;;;;;;;;;;;;;5049273;28;20555;-76
2024/03/05 09:34:08;;;;;;;;;;;;;;;;;;5048923;28;19996;-76
2024/03/05 09:36:34;;;;;;;;;;;;;;;;;;5050192;28;19936;-76
2024/03/05 09:38:59;;;;;;;;;;;;;;;;;;5050257;28;20008;-76
2024/03/05 09:41:27;;;;;;;;;;;;;;;;;;5049913;28;19920;-76
2024/03/05 09:43:53;;;;;;;;;;;;;;;;;;5050249;28;20352;-76
2024/03/05 09:46:18;;;;;;;;;;;;;;;;;;5049326;28;19917;-76
2024/03/05 09:48:44;;;;;;;;;;;;;;;;;;5040389;28;20443;-76
2024/03/05 09:51:10;;;;;;;;;;;;;;;;;;5041393;28;19916;-75
2024/03/05 09:53:36;;;;;;;;;;;;;;;;;;5036768;28;19956;-76
2024/03/05 09:56:04;;;;;;;;;;;;;;;;;;5043567;28;19913;-79
2024/03/05 09:58:30;;;;;;;;;;;;;;;;;;5041628;28;19917;-77
2024/03/05 10:00:56;;;;;;;;;;;;;;;;;;5037068;28;19921;-76
2024/03/05 10:03:22;;;;;;;;;;;;;;;;;;5035840;28;19917;-77
2024/03/05 10:05:48;;;;;;;;;;;;;;;;;;5048802;28;19920;-80
2024/03/05 10:08:14;;;;;;;;;;;;;;;;;;5046814;28;19912;-77
2024/03/05 10:10:40;;;;;;;;;;;;;;;;;;5045869;28;19920;-78
2024/03/05 10:13:06;;;;;;;;;;;;;;;;;;5049279;28;20279;-79
2024/03/05 10:15:34;;;;;;;;;;;;;;;;;;5046742;28;19917;-83
2024/03/05 10:18:00;;;;;;;;;;;;;;;;;;5040349;28;20334;-83
2024/03/05 10:20:26;;;;;;;;;;;;;;;;;;5040952;28;19920;-79
2024/03/05 10:22:52;;;;;;;;;;;;;;;;;;5049210;28;19913;-76
2024/03/05 10:25:18;;;;;;;;;;;;;;;;;;5042052;28;19917;-77
2024/03/05 10:27:44;;;;;;;;;;;;;;;;;;5040631;28;19932;-78
2024/03/05 10:30:10;;;;;;;;;;;;;;;;;;5042927;28;19920;-77
2024/03/05 10:32:36;;;;;;;;;;;;;;;;;;5040732;28;19939;-77
2024/03/05 10:35:02;;;;;;;;;;;;;;;;;;5037535;28;20016;-77
2024/03/05 10:37:28;;;;;;;;;;;;;;;;;;5047204;28;20000;-78
2024/03/05 10:39:54;;;;;;;;;;;;;;;;;;5044291;28;19917;-77
2024/03/05 10:42:20;;;;;;;;;;;;;;;;;;5047786;28;19968;-78
2024/03/05 10:44:46;;;;;;;;;;;;;;;;;;5048856;28;19948;-78
2024/03/05 10:47:12;;;;;;;;;;;;;;;;;;5049213;28;20148;-78
2024/03/05 10:49:37;;;;;;;;;;;;;;;;;;5049073;28;20007;-78
2024/03/05 10:52:03;;;;;;;;;;;;;;;;;;5038536;28;19939;-78
2024/03/05 10:54:29;;;;;;;;;;;;;;;;;;5038729;28;19909;-78
2024/03/05 10:56:56;;;;;;;;;;;;;;;;;;5045786;28;20335;-78
2024/03/05 10:59:34;;;;;;;;;;;;;;;;;;5049065;28;19909;-78
2024/03/05 11:02:00;;;;;;;;;;;;;;;;;;5048825;28;19933;-78
2024/03/05 11:04:25;;;;;;;;;;;;;;;;;;5048999;28;19972;-78
2024/03/05 11:06:54;;;;;;;;;;;;;;;;;;5048760;28;19919;-78
2024/03/05 11:09:20;;;;;;;;;;;;;;;;;;5048669;28;19927;-78
2024/03/05 11:11:46;;;;;;;;;;;;;;;;;;5047353;28;20356;-78
2024/03/05 11:14:12;;;;;;;;;;;;;;;;;;5042764;28;19920;-78
2024/03/05 11:16:38;;;;;;;;;;;;;;;;;;5048522;28;20371;-78
2024/03/05 11:19:04;;;;;;;;;;;;;;;;;;5048308;28;19973;-78
2024/03/05 11:21:31;;;;;;;;;;;;;;;;;;5048468;28;19952;-78
2024/03/05 11:23:57;;;;;;;;;;;;;;;;;;5048847;28;20029;-77
2024/03/05 11:26:23;;;;;;;;;;;;;;;;;;5048680;28;19920;-79
2024/03/05 11:28:51;;;;;;;;;;;;;;;;;;5038182;28;19913;-78
2024/03/05 11:31:17;;;;;;;;;;;;;;;;;;5044110;28;19917;-78
2024/03/05 11:33:43;;;;;;;;;;;;;;;;;;5042359;28;19913;-78
2024/03/05 11:36:09;;;;;;;;;;;;;;;;;;5044844;28;19913;-78
2024/03/05 11:38:35;;;;;;;;;;;;;;;;;;5048565;28;20410;-78
2024/03/05 11:41:01;;;;;;;;;;;;;;;;;;5048422;28;19983;-76
2024/03/05 11:43:27;;;;;;;;;;;;;;;;;;5048424;28;20367;-78
2024/03/05 11:45:53;;;;;;;;;;;;;;;;;;5034451;28;20415;-78
2024/03/05 11:48:19;;;;;;;;;;;;;;;;;;5038245;28;20288;-77
2024/03/05 11:50:44;;;;;;;;;;;;;;;;;;5048190;28;19909;-77
2024/03/05 11:53:10;;;;;;;;;;;;;;;;;;5048608;28;20375;-78
2024/03/05 11:55:36;;;;;;;;;;;;;;;;;;5048005;28;19917;-78
2024/03/05 11:58:02;;;;;;;;;;;;;;;;;;5057799;28;20330;-79
2024/03/05 12:00:29;;;;;;;;;;;;;;;;;;5068282;28;19915;-78
2024/03/05 12:02:55;;;;;;;;;;;;;;;;;;5068220;28;20485;-78
2024/03/05 12:05:21;;;;;;;;;;;;;;;;;;5048875;28;20027;-78
2024/03/05 12:07:47;;;;;;;;;;;;;;;;;;5041281;28;19923;-77
2024/03/05 12:10:13;;;;;;;;;;;;;;;;;;5042296;28;19913;-77
2024/03/05 12:12:39;;;;;;;;;;;;;;;;;;5048091;28;19909;-77
2024/03/05 12:15:05;;;;;;;;;;;;;;;;;;5046115;28;19916;-77
2024/03/05 12:17:30;;;;;;;;;;;;;;;;;;5053171;28;19931;-77
2024/03/05 12:19:56;;;;;;;;;;;;;;;;;;5067575;28;20370;-77
2024/03/05 12:22:22;;;;;;;;;;;;;;;;;;5048387;28;19909;-77
2024/03/05 12:24:48;;;;;;;;;;;;;;;;;;5042185;28;20608;-77
2024/03/05 12:27:15;;;;;;;;;;;;;;;;;;5033963;28;19909;-78
2024/03/05 12:29:41;;;;;;;;;;;;;;;;;;5045024;28;20007;-78
2024/03/05 12:32:06;;;;;;;;;;;;;;;;;;5071897;28;20377;-78
2024/03/05 12:34:32;;;;;;;;;;;;;;;;;;5071861;28;19912;-77
2024/03/05 12:36:58;;;;;;;;;;;;;;;;;;5071550;28;19995;-78
2024/03/05 12:39:24;;;;;;;;;;;;;;;;;;5055393;28;19920;-78
2024/03/05 12:41:50;;;;;;;;;;;;;;;;;;5051801;28;20155;-77
2024/03/05 12:44:16;;;;;;;;;;;;;;;;;;5043824;28;19971;-78
2024/03/05 12:46:41;;;;;;;;;;;;;;;;;;5043149;28;19999;-77
2024/03/05 12:49:08;;;;;;;;;;;;;;;;;;5039415;28;19917;-77
2024/03/05 12:51:34;;;;;;;;;;;;;;;;;;5046275;28;19908;-77
2024/03/05 12:54:00;;;;;;;;;;;;;;;;;;5051395;28;20402;-77
2024/03/05 12:56:26;;;;;;;;;;;;;;;;;;5047896;28;19920;-77
2024/03/05 12:58:51;;;;;;;;;;;;;;;;;;5066754;28;19998;-77
2024/03/05 13:01:17;;;;;;;;;;;;;;;;;;5072498;28;19967;-77
2024/03/05 13:03:43;;;;;;;;;;;;;;;;;;5070991;28;19936;-77
2024/03/05 13:06:11;;;;;;;;;;;;;;;;;;5071271;28;19952;-76
2024/03/05 13:08:36;;;;;;;;;;;;;;;;;;5047006;28;20324;-77
2024/03/05 13:11:04;;;;;;;;;;;;;;;;;;5050754;28;19967;-77
2024/03/05 13:13:30;;;;;;;;;;;;;;;;;;5051447;28;19916;-78
2024/03/05 13:15:56;;;;;;;;;;;;;;;;;;5051108;28;20008;-75
2024/03/05 13:18:22;;;;;;;;;;;;;;;;;;5050762;28;20094;-76
2024/03/05 13:20:48;;;;;;;;;;;;;;;;;;5050495;28;19913;-76
2024/03/05 13:23:14;;;;;;;;;;;;;;;;;;5050837;28;19916;-76
2024/03/05 13:25:40;;;;;;;;;;;;;;;;;;5051032;28;19958;-76
2024/03/05 13:28:05;;;;;;;;;;;;;;;;;;5049389;28;19909;-77
2024/03/05 13:30:31;;;;;;;;;;;;;;;;;;5052358;28;20332;-77
2024/03/05 13:32:58;;;;;;;;;;;;;;;;;;5053767;28;19909;-80
2024/03/05 13:35:24;;;;;;;;;;;;;;;;;;5070642;28;20027;-80
2024/03/05 13:37:50;;;;;;;;;;;;;;;;;;5070367;28;20422;-79
2024/03/05 13:40:20;;;;;;;;;;;;;;;;;;5054795;28;19997;-79
2024/03/05 13:42:46;;;;;;;;;;;;;;;;;;5050063;28;19913;-79
2024/03/05 13:45:12;;;;;;;;;;;;;;;;;;5049923;28;19974;-78
2024/03/05 13:47:38;;;;;;;;;;;;;;;;;;5037073;28;19960;-79
2024/03/05 13:50:09;;;;;;;;;;;;;;;;;;5050105;28;19913;-79
2024/03/05 13:52:35;;;;;;;;;;;;;;;;;;5050606;28;19916;-77
2024/03/05 13:55:02;;;;;;;;;;;;;;;;;;5039846;28;19921;-78
2024/03/05 13:57:29;;;;;;;;;;;;;;;;;;5047619;28;19966;-77
2024/03/05 13:59:55;;;;;;;;;;;;;;;;;;5037647;28;19920;-79
2024/03/05 14:02:21;;;;;;;;;;;;;;;;;;5063474;28;19913;-78
2024/03/05 14:04:47;;;;;;;;;;;;;;;;;;5046873;28;19924;-85
2024/03/05 14:07:15;;;;;;;;;;;;;;;;;;5040768;28;19916;-84
2024/03/05 14:09:45;;;;;;;;;;;;;;;;;;5043567;28;19942;-79
2024/03/05 14:12:11;;;;;;;;;;;;;;;;;;5050115;28;19940;-79
2024/03/05 14:14:37;;;;;;;;;;;;;;;;;;5038659;28;19917;-81
2024/03/05 14:17:02;;;;;;;;;;;;;;;;;;5047186;28;20684;-80
2024/03/05 14:19:28;;;;;;;;;;;;;;;;;;5045081;28;20632;-81
2024/03/05 14:22:00;;;;;;;;;;;;;;;;;;5044623;28;19913;-80
2024/03/05 14:24:26;;;;;;;;;;;;;;;;;;5042830;28;19967;-79
2024/03/05 14:26:52;;;;;;;;;;;;;;;;;;5046137;28;19956;-77
2024/03/05 14:29:18;;;;;;;;;;;;;;;;;;5046513;28;20010;-85
2024/03/05 14:31:44;;;;;;;;;;;;;;;;;;5040711;28;19925;-79
2024/03/05 14:34:09;;;;;;;;;;;;;;;;;;5029226;28;19921;-79
2024/03/05 14:36:36;;;;;;;;;;;;;;;;;;5042374;28;20471;-78
2024/03/05 14:39:08;;;;;;;;;;;;;;;;;;5043091;28;20268;-78
2024/03/05 14:41:34;;;;;;;;;;;;;;;;;;5036585;28;19986;-78
2024/03/05 14:44:01;;;;;;;;;;;;;;;;;;5042680;28;20429;-78
2024/03/05 14:46:27;;;;;;;;;;;;;;;;;;5043368;28;19917;-77
2024/03/05 14:48:53;;;;;;;;;;;;;;;;;;5040725;28;19913;-83
2024/03/05 14:51:19;;;;;;;;;;;;;;;;;;5046806;28;19935;-84
2024/03/05 14:53:45;;;;;;;;;;;;;;;;;;5045442;28;19996;-79
2024/03/05 14:56:11;;;;;;;;;;;;;;;;;;5036891;28;19924;-77
2024/03/05 14:58:38;;;;;;;;;;;;;;;;;;5042697;28;19921;-78
2024/03/05 15:01:04;;;;;;;;;;;;;;;;;;5041658;28;20284;-78
2024/03/05 15:03:32;;;;;;;;;;;;;;;;;;5045665;28;19929;-77
2024/03/05 15:05:57;;;;;;;;;;;;;;;;;;5043573;28;20354;-78
2024/03/05 15:08:23;;;;;;;;;;;;;;;;;;5040784;28;19914;-79
2024/03/05 15:10:49;;;;;;;;;;;;;;;;;;5040353;28;19963;-78
2024/03/05 15:13:17;;;;;;;;;;;;;;;;;;5047406;28;19913;-78
2024/03/05 15:15:42;;;;;;;;;;;;;;;;;;5048572;28;19913;-78
2024/03/05 15:18:08;;;;;;;;;;;;;;;;;;5039218;28;19921;-79
2024/03/05 15:20:34;;;;;;;;;;;;;;;;;;5026055;28;20015;-79
2024/03/05 15:23:00;;;;;;;;;;;;;;;;;;5041144;28;19917;-77
2024/03/05 15:25:26;;;;;;;;;;;;;;;;;;5019882;28;19920;-79
2024/03/05 15:27:52;;;;;;;;;;;;;;;;;;5021699;28;19945;-79
2024/03/05 15:30:19;;;;;;;;;;;;;;;;;;5014018;28;19910;-79
2024/03/05 15:32:48;;;;;;;;;;;;;;;;;;5022612;28;20391;-79
2024/03/05 15:35:14;;;;;;;;;;;;;;;;;;5030316;28;20085;-78
2024/03/05 15:37:42;;;;;;;;;;;;;;;;;;5028818;28;19924;-79
2024/03/05 15:40:15;;;;;;;;;;;;;;;;;;5027765;28;19913;-79
2024/03/05 15:42:40;;;;;;;;;;;;;;;;;;5029837;28;19917;-78
2024/03/05 15:45:06;;;;;;;;;;;;;;;;;;5032699;28;19924;-81
2024/03/05 15:47:32;;;;;;;;;;;;;;;;;;5021589;28;19917;-80
2024/03/05 15:49:58;;;;;;;;;;;;;;;;;;5014853;28;20008;-79
2024/03/05 15:52:26;;;;;;;;;;;;;;;;;;5013091;28;19914;-79
2024/03/05 15:54:52;;;;;;;;;;;;;;;;;;5019510;28;19943;-78
2024/03/05 15:57:24;;;;;;;;;;;;;;;;;;5018475;28;19945;-78
2024/03/05 16:00:11;;;;;;;;;;;;;;;;;;5020474;28;20297;-80
2024/03/05 16:02:39;;;;;;;;;;;;;;;;;;5014563;28;19917;-78
2024/03/05 16:05:04;;;;;;;;;;;;;;;;;;5023569;28;20039;-77
2024/03/05 16:07:31;;;;;;;;;;;;;;;;;;5021762;28;19925;-78
2024/03/05 16:09:58;;;;;;;;;;;;;;;;;;5024791;28;19919;-79
2024/03/05 16:12:24;;;;;;;;;;;;;;;;;;5027604;28;20000;-78
2024/03/05 16:14:50;;;;;;;;;;;;;;;;;;5001980;28;20024;-78
2024/03/05 16:17:17;;;;;;;;;;;;;;;;;;5013639;28;20256;-78
2024/03/05 16:19:43;;;;;;;;;;;;;;;;;;5050019;28;19928;-78
2024/03/05 16:22:08;;;;;;;;;;;;;;;;;;5048525;28;20125;-78
2024/03/05 16:24:35;;;;;;;;;;;;;;;;;;5046849;28;20081;-78
2024/03/05 16:27:01;;;;;;;;;;;;;;;;;;5038567;28;19971;-77
2024/03/05 16:29:26;;;;;;;;;;;;;;;;;;5039535;28;20011;-77
2024/03/05 16:31:53;;;;;;;;;;;;;;;;;;5057891;28;19920;-77
2024/03/05 16:34:19;;;;;;;;;;;;;;;;;;5050010;28;19913;-76
2024/03/05 16:36:47;;;;;;;;;;;;;;;;;;5045518;28;19999;-77
2024/03/05 16:39:18;;;;;;;;;;;;;;;;;;5041317;28;19982;-77
2024/03/05 16:41:43;;;;;;;;;;;;;;;;;;5044060;28;19913;-77
2024/03/05 16:44:10;;;;;;;;;;;;;;;;;;5049986;28;19979;-77